createdAt,value
2019-05-25T00:01:53.421Z,18.38
2019-05-25T00:04:43.066Z,18.36
2019-05-25T00:07:32.931Z,18.38
2019-05-25T00:10:23.489Z,18.39
2019-05-25T00:13:13.724Z,18.39
2019-05-25T00:16:03.586Z,18.38
2019-05-25T00:18:53.824Z,18.38
2019-05-25T00:21:43.883Z,18.38
2019-05-25T00:24:34.105Z,18.36
2019-05-25T00:27:24.136Z,18.37
2019-05-25T00:30:14.673Z,18.39
2019-05-25T00:33:04.860Z,18.37
2019-05-25T00:35:54.935Z,18.38
2019-05-25T00:38:45.169Z,18.40
2019-05-25T00:41:35.726Z,18.40
2019-05-25T00:44:25.570Z,18.38
2019-05-25T00:47:15.525Z,18.35
2019-05-25T00:50:06.285Z,18.34
2019-05-25T00:52:55.994Z,18.34
2019-05-25T00:55:45.736Z,18.36
2019-05-25T00:58:35.620Z,18.36
2019-05-25T01:01:24.948Z,18.38
2019-05-25T01:04:14.643Z,18.40
2019-05-25T01:07:04.874Z,18.42
2019-05-25T01:09:54.841Z,18.43
2019-05-25T01:12:44.792Z,18.44
2019-05-25T01:15:35.803Z,18.44
2019-05-25T01:18:25.866Z,18.45
2019-05-25T01:21:15.705Z,18.45
2019-05-25T01:24:05.822Z,18.45
2019-05-25T01:26:56.018Z,18.42
2019-05-25T01:29:45.849Z,18.41
2019-05-25T01:32:36.154Z,18.40
2019-05-25T01:35:25.785Z,18.36
2019-05-25T01:38:15.815Z,18.32
2019-05-25T01:41:06.059Z,18.27
2019-05-25T01:43:55.871Z,18.25
2019-05-25T01:46:45.946Z,18.22
2019-05-25T01:49:35.497Z,18.21
2019-05-25T01:52:25.685Z,18.18
2019-05-25T01:55:16.073Z,18.16
2019-05-25T01:58:06.546Z,18.14
2019-05-25T02:00:55.893Z,18.12
2019-05-25T02:03:46.014Z,18.09
2019-05-25T02:06:35.615Z,18.07
2019-05-25T02:09:25.497Z,18.03
2019-05-25T02:12:15.404Z,17.98
2019-05-25T02:15:06.607Z,17.96
2019-05-25T02:17:56.431Z,17.91
2019-05-25T02:20:46.332Z,17.89
2019-05-25T02:23:36.549Z,17.88
2019-05-25T02:26:26.535Z,17.86
2019-05-25T02:29:16.635Z,17.85
2019-05-25T02:32:07.153Z,17.83
2019-05-25T02:34:57.207Z,17.83
2019-05-25T02:37:47.829Z,17.82
2019-05-25T02:40:37.692Z,17.82
2019-05-25T02:43:27.993Z,17.81
2019-05-25T02:46:18.314Z,17.81
2019-05-25T02:49:08.282Z,17.82
2019-05-25T02:51:58.147Z,17.82
2019-05-25T02:54:48.122Z,17.82
2019-05-25T02:57:37.960Z,17.80
2019-05-25T03:00:35.666Z,17.80
2019-05-25T03:03:26.802Z,17.77
2019-05-25T03:06:20.447Z,17.75
2019-05-25T03:09:10.666Z,17.73
2019-05-25T03:12:01.670Z,17.70
2019-05-25T03:14:51.482Z,17.68
2019-05-25T03:17:41.158Z,17.65
2019-05-25T03:20:31.764Z,17.62
2019-05-25T03:23:21.658Z,17.61
2019-05-25T03:26:11.182Z,17.59
2019-05-25T03:29:00.882Z,17.58
2019-05-25T03:31:50.931Z,17.59
2019-05-25T03:34:41.232Z,17.60
2019-05-25T03:37:31.036Z,17.59
2019-05-25T03:40:21.181Z,17.58
2019-05-25T03:43:11.095Z,17.60
2019-05-25T03:46:01.449Z,17.63
2019-05-25T03:48:51.514Z,17.65
2019-05-25T03:51:42.706Z,17.67
2019-05-25T03:54:32.908Z,17.67
2019-05-25T03:57:23.208Z,17.68
2019-05-25T04:00:15.032Z,17.69
2019-05-25T04:03:06.005Z,17.70
2019-05-25T04:05:56.193Z,17.72
2019-05-25T04:08:46.237Z,17.73
2019-05-25T04:11:35.987Z,17.75
2019-05-25T04:14:25.522Z,17.78
2019-05-25T04:17:15.337Z,17.77
2019-05-25T04:20:06.098Z,17.76
2019-05-25T04:22:56.000Z,17.73
2019-05-25T04:25:46.370Z,17.72
2019-05-25T04:28:37.386Z,17.68
2019-05-25T04:31:27.469Z,17.65
2019-05-25T04:34:17.188Z,17.57
2019-05-25T04:37:07.302Z,17.52
2019-05-25T04:39:57.444Z,17.43
2019-05-25T04:42:47.558Z,17.43
2019-05-25T04:45:37.621Z,17.40
2019-05-25T04:48:27.275Z,17.32
2019-05-25T04:51:17.076Z,17.21
2019-05-25T04:54:07.241Z,17.12
2019-05-25T04:56:57.211Z,17.07
2019-05-25T04:59:47.073Z,17.02
2019-05-25T05:02:36.909Z,17.02
2019-05-25T05:05:26.892Z,17.02
2019-05-25T05:08:16.814Z,17.05
2019-05-25T05:11:07.220Z,17.11
2019-05-25T05:13:57.378Z,17.18
2019-05-25T05:16:47.464Z,17.24
2019-05-25T05:19:37.279Z,17.34
2019-05-25T05:22:27.222Z,17.44
2019-05-25T05:25:16.637Z,17.56
2019-05-25T05:28:06.210Z,17.65
2019-05-25T05:30:56.229Z,17.79
2019-05-25T05:33:45.949Z,17.89
2019-05-25T05:36:37.794Z,17.94
2019-05-25T05:39:29.188Z,17.96
2019-05-25T05:42:24.260Z,17.96
2019-05-25T05:45:15.655Z,17.95
2019-05-25T05:48:06.100Z,17.92
2019-05-25T05:50:59.594Z,17.93
2019-05-25T05:53:55.933Z,17.92
2019-05-25T05:56:45.662Z,17.89
2019-05-25T05:59:35.813Z,17.86
2019-05-25T06:02:25.632Z,17.89
2019-05-25T06:05:15.536Z,17.93
2019-05-25T06:08:05.646Z,18.00
2019-05-25T06:10:55.508Z,18.11
2019-05-25T06:13:45.535Z,18.23
2019-05-25T06:16:35.270Z,18.36
2019-05-25T06:19:25.182Z,18.43
2019-05-25T06:22:14.979Z,18.44
2019-05-25T06:25:05.670Z,18.47
2019-05-25T06:27:55.670Z,18.55
2019-05-25T06:30:45.783Z,18.64
2019-05-25T06:33:36.012Z,18.72
2019-05-25T06:36:25.876Z,18.82
2019-05-25T06:39:15.969Z,18.91
2019-05-25T06:42:05.979Z,18.97
2019-05-25T06:44:55.825Z,19.08
2019-05-25T06:47:45.641Z,19.23
2019-05-25T06:50:35.994Z,19.44
2019-05-25T06:53:25.724Z,19.55
2019-05-25T06:56:15.775Z,19.64
2019-05-25T06:59:06.075Z,19.71
2019-05-25T07:01:56.035Z,19.68
2019-05-25T07:04:46.109Z,19.78
2019-05-25T07:07:36.052Z,19.86
2019-05-25T07:10:26.219Z,19.97
2019-05-25T07:13:16.108Z,20.04
2019-05-25T07:16:06.279Z,20.12
2019-05-25T07:18:56.498Z,20.14
2019-05-25T07:21:46.669Z,20.16
2019-05-25T07:24:38.187Z,20.20
2019-05-25T07:27:27.879Z,20.30
2019-05-25T07:30:18.380Z,20.31
2019-05-25T07:33:08.160Z,20.39
2019-05-25T07:35:58.996Z,20.51
2019-05-25T07:38:49.198Z,20.59
2019-05-25T07:41:39.394Z,20.65
2019-05-25T07:44:29.114Z,20.61
2019-05-25T07:47:19.303Z,20.58
2019-05-25T07:50:10.548Z,20.54
2019-05-25T07:53:00.280Z,20.51
2019-05-25T07:55:50.259Z,20.59
2019-05-25T07:58:40.330Z,20.71
2019-05-25T08:01:29.970Z,20.70
2019-05-25T08:04:19.840Z,20.65
2019-05-25T08:07:09.608Z,20.58
2019-05-25T08:09:59.364Z,20.56
2019-05-25T08:12:50.140Z,20.52
2019-05-25T08:15:40.293Z,20.55
2019-05-25T08:18:30.018Z,20.71
2019-05-25T08:21:19.671Z,20.81
2019-05-25T08:24:09.823Z,20.86
2019-05-25T08:26:59.882Z,20.93
2019-05-25T08:29:49.744Z,21.04
2019-05-25T08:32:39.540Z,21.11
2019-05-25T08:35:29.453Z,21.12
2019-05-25T08:38:19.456Z,21.18
2019-05-25T08:41:09.327Z,21.22
2019-05-25T08:43:59.113Z,21.31
2019-05-25T08:46:49.017Z,21.35
2019-05-25T08:49:39.292Z,21.38
2019-05-25T08:52:29.058Z,21.46
2019-05-25T08:55:29.686Z,21.61
2019-05-25T08:58:19.497Z,21.72
2019-05-25T09:01:09.324Z,21.80
2019-05-25T09:03:59.071Z,21.97
2019-05-25T09:06:49.114Z,21.97
2019-05-25T09:09:39.168Z,22.06
2019-05-25T09:12:29.290Z,22.19
2019-05-25T09:15:20.341Z,22.32
2019-05-25T09:18:10.363Z,22.40
2019-05-25T09:21:00.291Z,22.47
2019-05-25T09:23:50.050Z,22.66
2019-05-25T09:26:39.981Z,22.81
2019-05-25T09:29:29.475Z,22.83
2019-05-25T09:32:19.639Z,22.69
2019-05-25T09:35:11.015Z,22.56
2019-05-25T09:38:00.605Z,22.48
2019-05-25T09:40:51.204Z,22.47
2019-05-25T09:43:41.328Z,22.50
2019-05-25T09:46:31.434Z,22.54
2019-05-25T09:49:20.800Z,22.67
2019-05-25T09:52:10.819Z,22.84
2019-05-25T09:55:01.239Z,22.85
2019-05-25T09:57:51.393Z,23.03
2019-05-25T10:00:41.134Z,23.30
2019-05-25T10:03:30.948Z,23.57
2019-05-25T10:06:21.303Z,23.74
2019-05-25T10:09:11.297Z,23.78
2019-05-25T10:12:01.376Z,23.78
2019-05-25T10:14:51.640Z,23.86
2019-05-25T10:17:41.630Z,24.09
2019-05-25T10:20:31.946Z,24.67
2019-05-25T10:23:22.164Z,25.15
2019-05-25T10:26:11.799Z,25.90
2019-05-25T10:29:01.673Z,26.58
2019-05-25T10:31:51.469Z,27.02
2019-05-25T10:34:41.461Z,27.28
2019-05-25T10:37:31.596Z,27.69
2019-05-25T10:40:21.707Z,27.85
2019-05-25T10:43:11.889Z,28.16
2019-05-25T10:46:01.751Z,28.62
2019-05-25T10:48:51.689Z,29.05
2019-05-25T10:51:41.646Z,29.41
2019-05-25T10:54:31.569Z,29.73
2019-05-25T10:57:22.017Z,29.93
2019-05-25T11:00:14.525Z,29.70
2019-05-25T11:03:04.316Z,29.42
2019-05-25T11:05:54.358Z,28.83
2019-05-25T11:08:45.737Z,28.29
2019-05-25T11:11:36.061Z,28.23
2019-05-25T11:14:25.990Z,28.45
2019-05-25T11:17:15.921Z,28.84
2019-05-25T11:20:06.573Z,29.16
2019-05-25T11:22:56.612Z,29.48
2019-05-25T11:25:46.635Z,29.73
2019-05-25T11:28:36.734Z,29.47
2019-05-25T11:31:26.238Z,29.27
2019-05-25T11:34:16.056Z,29.50
2019-05-25T11:37:06.063Z,29.31
2019-05-25T11:39:56.254Z,28.93
2019-05-25T11:42:45.920Z,28.56
2019-05-25T11:45:36.155Z,28.44
2019-05-25T11:48:25.898Z,28.97
2019-05-25T11:51:15.838Z,29.14
2019-05-25T11:54:05.966Z,29.01
2019-05-25T11:56:56.046Z,28.54
2019-05-25T11:59:45.907Z,28.12
2019-05-25T12:02:36.014Z,27.77
2019-05-25T12:05:25.952Z,27.43
2019-05-25T12:08:15.801Z,27.10
2019-05-25T12:11:05.599Z,26.88
2019-05-25T12:13:55.795Z,27.01
2019-05-25T12:16:45.639Z,26.97
2019-05-25T12:19:35.569Z,26.83
2019-05-25T12:22:25.845Z,26.70
2019-05-25T12:25:17.976Z,26.64
2019-05-25T12:28:08.133Z,26.61
2019-05-25T12:31:01.674Z,26.56
2019-05-25T12:33:51.896Z,26.49
2019-05-25T12:36:42.075Z,26.52
2019-05-25T12:39:32.045Z,26.64
2019-05-25T12:42:21.891Z,26.92
2019-05-25T12:45:13.054Z,27.24
2019-05-25T12:48:03.152Z,27.51
2019-05-25T12:50:53.550Z,27.57
2019-05-25T12:53:43.428Z,27.53
2019-05-25T12:56:32.992Z,27.53
2019-05-25T12:59:22.876Z,27.50
2019-05-25T13:02:12.807Z,27.46
2019-05-25T13:05:02.931Z,27.36
2019-05-25T13:07:53.276Z,27.34
2019-05-25T13:10:43.273Z,27.34
2019-05-25T13:13:33.519Z,27.40
2019-05-25T13:16:23.713Z,27.43
2019-05-25T13:19:13.983Z,27.43
2019-05-25T13:22:04.278Z,27.40
2019-05-25T13:24:54.740Z,27.35
2019-05-25T13:27:44.418Z,27.28
2019-05-25T13:30:34.234Z,27.17
2019-05-25T13:33:24.253Z,27.15
2019-05-25T13:36:14.522Z,27.10
2019-05-25T13:39:06.145Z,26.83
2019-05-25T13:41:56.758Z,26.63
2019-05-25T13:44:46.273Z,26.71
2019-05-25T13:47:36.414Z,26.86
2019-05-25T13:50:26.510Z,27.05
2019-05-25T13:53:16.482Z,27.38
2019-05-25T13:56:06.708Z,27.33
2019-05-25T13:58:56.561Z,27.17
2019-05-25T14:01:46.475Z,26.99
2019-05-25T14:04:36.765Z,27.01
2019-05-25T14:07:26.763Z,27.24
2019-05-25T14:10:16.938Z,27.28
2019-05-25T14:13:06.368Z,27.23
2019-05-25T14:16:06.655Z,27.27
2019-05-25T14:18:47.791Z,27.32
2019-05-25T14:21:37.792Z,27.50
2019-05-25T14:24:28.070Z,27.57
2019-05-25T14:27:19.482Z,27.55
2019-05-25T14:30:11.291Z,27.67
2019-05-25T14:33:01.982Z,27.73
2019-05-25T14:35:52.107Z,27.66
2019-05-25T14:38:41.671Z,27.57
2019-05-25T14:41:30.842Z,27.52
2019-05-25T14:44:20.815Z,27.48
2019-05-25T14:47:10.593Z,27.46
2019-05-25T14:50:00.794Z,27.35
2019-05-25T14:52:51.090Z,27.29
2019-05-25T14:55:41.283Z,27.20
2019-05-25T14:58:31.689Z,27.09
2019-05-25T15:01:21.211Z,26.96
2019-05-25T15:04:10.992Z,26.88
2019-05-25T15:07:01.414Z,26.79
2019-05-25T15:09:51.619Z,26.73
2019-05-25T15:12:41.697Z,24.78
2019-05-25T15:15:31.594Z,26.54
2019-05-25T15:18:21.841Z,26.44
2019-05-25T15:21:12.203Z,26.37
2019-05-25T15:24:02.675Z,26.31
2019-05-25T15:26:54.116Z,26.28
2019-05-25T15:29:43.972Z,26.27
2019-05-25T15:32:34.057Z,26.25
2019-05-25T15:35:24.171Z,26.20
2019-05-25T15:38:13.965Z,26.15
2019-05-25T15:41:04.387Z,26.11
2019-05-25T15:43:54.149Z,26.06
2019-05-25T15:46:43.982Z,25.97
2019-05-25T15:49:34.655Z,25.81
2019-05-25T15:52:24.895Z,25.66
2019-05-25T15:55:15.403Z,25.50
2019-05-25T15:58:05.601Z,25.29
2019-05-25T16:00:55.516Z,25.16
2019-05-25T16:03:45.549Z,25.09
2019-05-25T16:06:35.441Z,24.97
2019-05-25T16:09:25.244Z,24.90
2019-05-25T16:12:15.311Z,24.78
2019-05-25T16:15:06.101Z,24.73
2019-05-25T16:17:56.090Z,24.69
2019-05-25T16:20:45.886Z,24.64
2019-05-25T16:23:36.071Z,24.52
2019-05-25T16:26:26.464Z,24.42
2019-05-25T16:29:16.631Z,24.37
2019-05-25T16:32:07.912Z,24.31
2019-05-25T16:34:57.745Z,24.24
2019-05-25T16:37:47.741Z,24.15
2019-05-25T16:40:37.686Z,23.93
2019-05-25T16:43:27.498Z,23.87
2019-05-25T16:46:17.763Z,23.79
2019-05-25T16:49:09.563Z,23.71
2019-05-25T16:51:59.946Z,23.60
2019-05-25T16:54:49.323Z,23.54
2019-05-25T16:57:39.144Z,23.49
2019-05-25T17:00:31.219Z,23.44
2019-05-25T17:03:28.083Z,23.40
2019-05-25T17:06:12.509Z,23.36
2019-05-25T17:09:02.878Z,23.29
2019-05-25T17:11:53.420Z,23.24
2019-05-25T17:14:43.669Z,23.18
2019-05-25T17:17:33.342Z,23.15
2019-05-25T17:20:24.503Z,23.08
2019-05-25T17:23:14.570Z,22.98
2019-05-25T17:26:05.775Z,22.91
2019-05-25T17:28:55.849Z,22.79
2019-05-25T17:31:46.100Z,22.71
2019-05-25T17:34:36.146Z,22.70
2019-05-25T17:37:27.112Z,22.63
2019-05-25T17:40:17.386Z,22.55
2019-05-25T17:43:07.327Z,22.47
2019-05-25T17:45:57.668Z,22.40
2019-05-25T17:48:47.605Z,22.35
2019-05-25T17:51:37.120Z,22.27
2019-05-25T17:54:27.049Z,22.23
2019-05-25T17:57:16.892Z,22.16
2019-05-25T18:00:08.123Z,22.05
2019-05-25T18:02:58.317Z,22.00
2019-05-25T18:05:48.772Z,21.89
2019-05-25T18:08:39.106Z,21.82
2019-05-25T18:11:28.821Z,21.77
2019-05-25T18:14:18.387Z,21.71
2019-05-25T18:17:07.678Z,21.64
2019-05-25T18:19:58.784Z,21.57
2019-05-25T18:22:48.960Z,21.45
2019-05-25T18:25:38.965Z,21.35
2019-05-25T18:28:32.089Z,21.25
2019-05-25T18:31:21.686Z,21.15
2019-05-25T18:34:22.107Z,21.06
2019-05-25T18:37:05.693Z,20.97
2019-05-25T18:39:56.960Z,20.86
2019-05-25T18:42:47.353Z,20.77
2019-05-25T18:45:37.001Z,20.62
2019-05-25T18:48:26.535Z,20.56
2019-05-25T18:51:16.321Z,20.47
2019-05-25T18:54:06.333Z,20.30
2019-05-25T18:56:56.294Z,20.24
2019-05-25T18:59:46.563Z,20.14
2019-05-25T19:02:36.467Z,20.03
2019-05-25T19:05:26.973Z,19.93
2019-05-25T19:08:17.301Z,19.85
2019-05-25T19:11:07.537Z,19.70
2019-05-25T19:13:57.601Z,19.64
2019-05-25T19:16:47.291Z,19.56
2019-05-25T19:19:37.106Z,19.52
2019-05-25T19:22:26.447Z,19.48
2019-05-25T19:25:16.289Z,19.45
2019-05-25T19:28:06.537Z,19.42
2019-05-25T19:30:56.479Z,19.35
2019-05-25T19:33:46.038Z,19.24
2019-05-25T19:36:36.015Z,19.18
2019-05-25T19:39:26.232Z,19.11
2019-05-25T19:42:15.311Z,19.03
2019-05-25T19:45:05.602Z,18.97
2019-05-25T19:47:55.525Z,18.93
2019-05-25T19:50:44.985Z,18.87
2019-05-25T19:53:35.072Z,18.82
2019-05-25T19:56:25.329Z,18.75
2019-05-25T19:59:14.787Z,18.67
2019-05-25T20:02:05.080Z,18.61
2019-05-25T20:04:55.000Z,18.53
2019-05-25T20:07:45.157Z,18.43
2019-05-25T20:10:35.053Z,18.39
2019-05-25T20:13:24.610Z,18.33
2019-05-25T20:16:14.718Z,18.26
2019-05-25T20:19:05.520Z,18.24
2019-05-25T20:21:55.267Z,18.19
2019-05-25T20:24:45.417Z,18.14
2019-05-25T20:27:35.373Z,18.12
2019-05-25T20:30:25.015Z,18.08
2019-05-25T20:33:27.157Z,18.03
2019-05-25T20:36:07.432Z,17.99
2019-05-25T20:38:57.892Z,17.94
2019-05-25T20:41:47.835Z,17.86
2019-05-25T20:44:38.119Z,17.80
2019-05-25T20:47:27.969Z,17.75
2019-05-25T20:50:18.362Z,17.68
2019-05-25T20:53:08.311Z,17.61
2019-05-25T20:55:58.002Z,17.55
2019-05-25T20:58:47.984Z,17.48
2019-05-25T21:01:38.037Z,17.45
2019-05-25T21:04:27.828Z,17.39
2019-05-25T21:07:18.033Z,17.32
2019-05-25T21:10:08.399Z,17.26
2019-05-25T21:12:58.654Z,17.19
2019-05-25T21:15:48.713Z,17.14
2019-05-25T21:18:39.853Z,17.07
2019-05-25T21:21:29.927Z,17.01
2019-05-25T21:24:20.182Z,16.94
2019-05-25T21:27:10.220Z,16.89
2019-05-25T21:30:00.386Z,16.82
2019-05-25T21:32:50.415Z,16.75
2019-05-25T21:35:40.595Z,16.71
2019-05-25T21:38:30.803Z,16.66
2019-05-25T21:41:21.306Z,16.65
2019-05-25T21:44:11.085Z,16.63
2019-05-25T21:47:01.416Z,16.61
2019-05-25T21:49:51.215Z,16.62
2019-05-25T21:52:41.121Z,16.61
2019-05-25T21:55:30.971Z,16.58
2019-05-25T21:58:21.035Z,16.55
2019-05-25T22:01:12.194Z,16.50
2019-05-25T22:04:03.513Z,16.47
2019-05-25T22:06:54.480Z,16.44
2019-05-25T22:09:44.515Z,16.41
2019-05-25T22:12:34.566Z,16.39
2019-05-25T22:15:24.335Z,16.39
2019-05-25T22:18:14.039Z,16.39
2019-05-25T22:21:04.211Z,16.38
2019-05-25T22:23:53.735Z,16.38
2019-05-25T22:26:43.210Z,16.34
2019-05-25T22:29:33.533Z,16.33
2019-05-25T22:32:23.761Z,16.30
2019-05-25T22:35:13.641Z,16.25
2019-05-25T22:38:03.350Z,16.23
2019-05-25T22:40:52.891Z,16.20
2019-05-25T22:43:42.213Z,16.18
2019-05-25T22:46:32.420Z,16.15
2019-05-25T22:49:22.847Z,16.17
2019-05-25T22:52:12.810Z,16.19
2019-05-25T22:55:02.709Z,16.19
2019-05-25T22:57:52.718Z,16.20
2019-05-25T23:00:42.572Z,16.20
2019-05-25T23:03:32.765Z,16.21
2019-05-25T23:06:24.366Z,16.19
2019-05-25T23:09:13.906Z,16.18
2019-05-25T23:12:03.927Z,16.14
2019-05-25T23:14:54.186Z,16.12
2019-05-25T23:17:43.475Z,16.09
2019-05-25T23:20:36.493Z,16.07
2019-05-25T23:23:25.644Z,16.04
2019-05-25T23:26:15.459Z,16.02
2019-05-25T23:29:05.994Z,15.96
2019-05-25T23:31:55.467Z,15.88
2019-05-25T23:34:45.158Z,15.84
2019-05-25T23:37:34.994Z,15.80
2019-05-25T23:40:24.875Z,15.76
2019-05-25T23:43:16.243Z,15.70
2019-05-25T23:46:06.124Z,15.65
2019-05-25T23:48:56.330Z,15.59
2019-05-25T23:51:46.200Z,15.55
2019-05-25T23:54:36.390Z,15.49
2019-05-25T23:57:26.505Z,15.41
